Portada
METAR-TAF:

METAR-TAF

Aeroports :

Ürümqi, Xina

latitud: 43-54N, longitud: 087-28E, altitud: 654 m

Observació

L'informe es va fer fa 43 minuts, a les 08:00 UTC
Vent 6 kt del Nord/Nord-Est
Temperatura 7°C
Humitat 57%
Pressió 1037 hPa
Visibilitat 10 km o més
sense núvols per sota de 1500 mi sense presència de cumulonimbus.

METAR: ZWWW 120800Z 02003MPS CAVOK 07/M01 Q1037 NOSIG

Hora: 14:43 (08:43 UTC)

Pronòstic

L'informe es va fer fa 5 hores i 39 minuts, a les 03:04 UTC
Pronòstic vàlid del 12 a les 06 UTC al 13 a les 06 UTC
Vent 8 kt del Nord
Visibilitat 10 km o més
sense núvols per sota de 1500 mi sense presència de cumulonimbus.
Evolucionant progressivament
l' 12 a les 13 UTC al 12 a les 14 UTC
Vent 8 kt del Sud
Evolucionant progressivament
l' 13 a les 03 UTC al 13 a les 04 UTC
Vent 8 kt del Nord

TAF: ZWWW 120304Z 1206/1306 01004MPS CAVOK TX07/1209Z TNM01/23Z BECMG 1213/1214 18004MPS BECMG 1303/1304 36004MPS

Observacions i pronòstics meteorològics de més de 4000 aeroports (METAR i TAF).

Les estacions disponibles són els punts grocs i vermells al mapa.

Posi el ratolí al punt desitjat per veure el nom de l'estació.

Feu clic per veure les observacions i els pronòstics meteorològics.

Per canviar el mapa: feu clic els botons verds amb una creu de color negre per apropar; al botó verd amb un guió per allunyar la imatge; o en les fletxes verdes per a mapes adjacents.


METAR-TAF: